Aérodrome :
LOGIN :

S'inscrire | Disclaimer

   EN    FR    IT 

 










Légende :    VFR   VFR Marginal   IFR   IFR Intensif   IFR Très Intensif
Visi : 
Plafond : 
>= 8 km
>= 3000ft
5 à 8 km
1000 à 3000 ft
1500m à 5 km
500 à 1000 ft
800 à 1500m
200 à 500 ft
< 800m
< 200 ft
Symboles :   Orages  Brouillard  Fortes neiges  Fortes précipitations  Vent > 20 kt
SIGMETs :   Divers  Orages  Givrage  Turbulence  Onde Orograph.  Cendres Volcan.






- Altitude de l'aérodrome : 240 ft
- Code IATA : VLC


LEVC - Valencia Manises

DERNIER METAR :
  • 310330Z 30003KT 220V340 CAVOK 17/11 Q1014 NOSIG

METARs EXPIRÉS :
  • 310300Z 32007KT CAVOK 17/11 Q1014 NOSIG
  • 310230Z 33008KT CAVOK 17/12 Q1014 NOSIG
  • 310200Z 32008KT CAVOK 18/12 Q1014 NOSIG
  • 310130Z 33007KT CAVOK 18/13 Q1014 NOSIG
  • 310100Z 32006KT CAVOK 19/14 Q1014 NOSIG

TAF TAF LEVC
Valide du 31 à 00h jusqu'au 01 à 00h UTC


302300Z 3100/3124 35005KT CAVOK TX29/3112Z TN16/3106Z
TEMPO 3106/3110 VRB04KT
BECMG 3110/3112 12010KT
BECMG 3120/3122 VRB03KT



MET'MAP, la Météo Aéronautique d'un coup d'oeil ! - Copyright ORBIFLY Décembre 2007 - Disclaimer

ORBIFLY MET'MAP TEAM :

Programmation & Développement : Alexandra Zaïnal
Sur une idée originale de : Baudouin d'Aumeries
Assistance à la programmation : Marc-Olivier Méhu
Soutien technique & logistique : Manuel Goepfert

Contact : metmap@orbifly.com




SOURCES & CREDITS :

   NOAA